sensor_id;sensor_type;location;lat;lon;timestamp;P1;durP1;ratioP1;P2;durP2;ratioP2
48207;SDS011;33997;53.278;9.708;2023-02-02T00:01:41;21.52;;;3.17;;
48207;SDS011;33997;53.278;9.708;2023-02-02T00:04:14;18.30;;;2.78;;
48207;SDS011;33997;53.278;9.708;2023-02-02T00:06:48;19.60;;;3.17;;
48207;SDS011;33997;53.278;9.708;2023-02-02T00:09:15;13.57;;;3.08;;
48207;SDS011;33997;53.278;9.708;2023-02-02T00:11:42;21.30;;;4.18;;
48207;SDS011;33997;53.278;9.708;2023-02-02T00:14:08;21.80;;;3.55;;
48207;SDS011;33997;53.278;9.708;2023-02-02T00:16:44;19.85;;;2.92;;
48207;SDS011;33997;53.278;9.708;2023-02-02T00:19:15;25.15;;;3.97;;
48207;SDS011;33997;53.278;9.708;2023-02-02T00:21:46;22.75;;;3.83;;
48207;SDS011;33997;53.278;9.708;2023-02-02T00:24:13;25.58;;;4.30;;
48207;SDS011;33997;53.278;9.708;2023-02-02T00:26:40;28.70;;;4.07;;
48207;SDS011;33997;53.278;9.708;2023-02-02T00:29:08;29.90;;;4.03;;
48207;SDS011;33997;53.278;9.708;2023-02-02T00:31:38;30.10;;;4.53;;
48207;SDS011;33997;53.278;9.708;2023-02-02T00:34:04;18.45;;;3.15;;
48207;SDS011;33997;53.278;9.708;2023-02-02T00:36:29;34.88;;;4.05;;
48207;SDS011;33997;53.278;9.708;2023-02-02T00:38:55;24.48;;;3.97;;
48207;SDS011;33997;53.278;9.708;2023-02-02T00:41:20;21.20;;;3.30;;
48207;SDS011;33997;53.278;9.708;2023-02-02T00:43:46;23.92;;;3.28;;
48207;SDS011;33997;53.278;9.708;2023-02-02T00:46:31;19.08;;;3.33;;
48207;SDS011;33997;53.278;9.708;2023-02-02T00:48:56;27.42;;;3.50;;
48207;SDS011;33997;53.278;9.708;2023-02-02T00:51:22;12.05;;;2.65;;
48207;SDS011;33997;53.278;9.708;2023-02-02T00:53:47;14.63;;;2.83;;
48207;SDS011;33997;53.278;9.708;2023-02-02T00:56:13;16.52;;;2.17;;
48207;SDS011;33997;53.278;9.708;2023-02-02T00:58:38;17.58;;;2.67;;
48207;SDS011;33997;53.278;9.708;2023-02-02T01:01:04;20.52;;;3.15;;
48207;SDS011;33997;53.278;9.708;2023-02-02T01:03:29;16.63;;;2.25;;
48207;SDS011;33997;53.278;9.708;2023-02-02T01:05:55;20.08;;;2.88;;
48207;SDS011;33997;53.278;9.708;2023-02-02T01:08:20;20.77;;;3.30;;
48207;SDS011;33997;53.278;9.708;2023-02-02T01:10:45;18.08;;;2.70;;
48207;SDS011;33997;53.278;9.708;2023-02-02T01:13:11;22.98;;;3.20;;
48207;SDS011;33997;53.278;9.708;2023-02-02T01:15:36;24.08;;;2.88;;
48207;SDS011;33997;53.278;9.708;2023-02-02T01:18:05;19.85;;;2.60;;
48207;SDS011;33997;53.278;9.708;2023-02-02T01:20:30;19.63;;;2.83;;
48207;SDS011;33997;53.278;9.708;2023-02-02T01:22:56;21.63;;;2.92;;
48207;SDS011;33997;53.278;9.708;2023-02-02T01:25:21;16.08;;;2.67;;
48207;SDS011;33997;53.278;9.708;2023-02-02T01:27:47;22.27;;;3.60;;
48207;SDS011;33997;53.278;9.708;2023-02-02T01:30:13;14.70;;;2.25;;
48207;SDS011;33997;53.278;9.708;2023-02-02T01:32:38;15.02;;;3.42;;
48207;SDS011;33997;53.278;9.708;2023-02-02T01:35:04;20.08;;;3.05;;
48207;SDS011;33997;53.278;9.708;2023-02-02T01:37:30;16.45;;;2.38;;
48207;SDS011;33997;53.278;9.708;2023-02-02T01:39:55;21.42;;;3.42;;
48207;SDS011;33997;53.278;9.708;2023-02-02T01:42:21;26.98;;;3.55;;
48207;SDS011;33997;53.278;9.708;2023-02-02T01:45:01;23.75;;;2.90;;
48207;SDS011;33997;53.278;9.708;2023-02-02T01:47:32;26.85;;;3.05;;
48207;SDS011;33997;53.278;9.708;2023-02-02T01:50:02;20.85;;;3.03;;
48207;SDS011;33997;53.278;9.708;2023-02-02T01:52:29;21.88;;;2.92;;
48207;SDS011;33997;53.278;9.708;2023-02-02T01:55:01;20.13;;;2.65;;
48207;SDS011;33997;53.278;9.708;2023-02-02T01:57:52;32.92;;;3.25;;
48207;SDS011;33997;53.278;9.708;2023-02-02T02:00:30;16.95;;;2.50;;
48207;SDS011;33997;53.278;9.708;2023-02-02T02:02:57;20.80;;;2.97;;
48207;SDS011;33997;53.278;9.708;2023-02-02T02:05:29;19.63;;;2.20;;
48207;SDS011;33997;53.278;9.708;2023-02-02T02:08:14;24.55;;;3.65;;
48207;SDS011;33997;53.278;9.708;2023-02-02T02:10:45;20.95;;;4.32;;
48207;SDS011;33997;53.278;9.708;2023-02-02T02:13:11;21.38;;;3.17;;
48207;SDS011;33997;53.278;9.708;2023-02-02T02:15:56;21.00;;;3.40;;
48207;SDS011;33997;53.278;9.708;2023-02-02T02:21:46;26.45;;;3.88;;
48207;SDS011;33997;53.278;9.708;2023-02-02T02:27:59;19.52;;;3.47;;
48207;SDS011;33997;53.278;9.708;2023-02-02T02:30:53;19.58;;;3.58;;
48207;SDS011;33997;53.278;9.708;2023-02-02T02:36:07;29.80;;;3.65;;
48207;SDS011;33997;53.278;9.708;2023-02-02T02:41:14;23.85;;;4.30;;
48207;SDS011;33997;53.278;9.708;2023-02-02T02:43:46;31.50;;;4.18;;
48207;SDS011;33997;53.278;9.708;2023-02-02T02:46:22;25.63;;;3.97;;
48207;SDS011;33997;53.278;9.708;2023-02-02T02:48:48;20.50;;;2.88;;
48207;SDS011;33997;53.278;9.708;2023-02-02T02:54:06;19.15;;;3.72;;
48207;SDS011;33997;53.278;9.708;2023-02-02T02:56:34;17.95;;;3.75;;
48207;SDS011;33997;53.278;9.708;2023-02-02T03:02:10;23.02;;;3.17;;
48207;SDS011;33997;53.278;9.708;2023-02-02T03:07:41;20.33;;;2.70;;
48207;SDS011;33997;53.278;9.708;2023-02-02T03:10:12;16.15;;;2.40;;
48207;SDS011;33997;53.278;9.708;2023-02-02T03:12:44;19.33;;;2.95;;
48207;SDS011;33997;53.278;9.708;2023-02-02T03:15:12;15.30;;;2.70;;
48207;SDS011;33997;53.278;9.708;2023-02-02T03:17:38;17.65;;;2.10;;
48207;SDS011;33997;53.278;9.708;2023-02-02T03:20:05;17.48;;;2.78;;
48207;SDS011;33997;53.278;9.708;2023-02-02T03:22:30;26.27;;;2.58;;
48207;SDS011;33997;53.278;9.708;2023-02-02T03:24:56;15.77;;;2.10;;
48207;SDS011;33997;53.278;9.708;2023-02-02T03:27:23;25.73;;;3.15;;
48207;SDS011;33997;53.278;9.708;2023-02-02T03:29:49;14.85;;;2.55;;
48207;SDS011;33997;53.278;9.708;2023-02-02T03:32:15;22.80;;;2.67;;
48207;SDS011;33997;53.278;9.708;2023-02-02T03:34:40;25.90;;;3.17;;
48207;SDS011;33997;53.278;9.708;2023-02-02T03:37:06;27.70;;;2.42;;
48207;SDS011;33997;53.278;9.708;2023-02-02T03:39:31;17.38;;;3.00;;
48207;SDS011;33997;53.278;9.708;2023-02-02T03:41:57;25.33;;;3.22;;
48207;SDS011;33997;53.278;9.708;2023-02-02T03:44:22;22.65;;;2.95;;
48207;SDS011;33997;53.278;9.708;2023-02-02T03:46:47;20.27;;;2.65;;
48207;SDS011;33997;53.278;9.708;2023-02-02T03:49:16;27.10;;;3.97;;
48207;SDS011;33997;53.278;9.708;2023-02-02T03:51:42;28.92;;;3.42;;
48207;SDS011;33997;53.278;9.708;2023-02-02T03:54:08;18.20;;;3.20;;
48207;SDS011;33997;53.278;9.708;2023-02-02T03:56:33;26.33;;;3.25;;
48207;SDS011;33997;53.278;9.708;2023-02-02T03:58:59;20.83;;;2.90;;
48207;SDS011;33997;53.278;9.708;2023-02-02T04:01:25;22.85;;;2.75;;
48207;SDS011;33997;53.278;9.708;2023-02-02T04:03:53;19.70;;;3.40;;
48207;SDS011;33997;53.278;9.708;2023-02-02T04:06:19;20.77;;;2.83;;
48207;SDS011;33997;53.278;9.708;2023-02-02T04:08:45;20.00;;;3.22;;
48207;SDS011;33997;53.278;9.708;2023-02-02T04:11:10;28.20;;;3.75;;
48207;SDS011;33997;53.278;9.708;2023-02-02T04:13:36;23.63;;;3.05;;
48207;SDS011;33997;53.278;9.708;2023-02-02T04:16:01;20.98;;;3.85;;
48207;SDS011;33997;53.278;9.708;2023-02-02T04:18:27;21.80;;;3.67;;
48207;SDS011;33997;53.278;9.708;2023-02-02T04:21:00;12.18;;;2.67;;
48207;SDS011;33997;53.278;9.708;2023-02-02T04:23:26;21.23;;;3.15;;
48207;SDS011;33997;53.278;9.708;2023-02-02T04:25:52;23.15;;;3.22;;
48207;SDS011;33997;53.278;9.708;2023-02-02T04:28:18;20.83;;;2.72;;
48207;SDS011;33997;53.278;9.708;2023-02-02T04:30:44;28.00;;;3.08;;
48207;SDS011;33997;53.278;9.708;2023-02-02T04:33:09;20.08;;;3.05;;
48207;SDS011;33997;53.278;9.708;2023-02-02T04:35:34;22.90;;;3.55;;
48207;SDS011;33997;53.278;9.708;2023-02-02T04:38:00;17.35;;;3.20;;
48207;SDS011;33997;53.278;9.708;2023-02-02T04:40:26;22.38;;;3.15;;
48207;SDS011;33997;53.278;9.708;2023-02-02T04:42:51;28.85;;;3.25;;
48207;SDS011;33997;53.278;9.708;2023-02-02T04:45:16;21.83;;;2.95;;
48207;SDS011;33997;53.278;9.708;2023-02-02T04:47:42;18.05;;;3.55;;
48207;SDS011;33997;53.278;9.708;2023-02-02T04:50:08;24.35;;;3.13;;
48207;SDS011;33997;53.278;9.708;2023-02-02T04:52:34;18.73;;;3.17;;
48207;SDS011;33997;53.278;9.708;2023-02-02T04:54:59;20.95;;;3.15;;
48207;SDS011;33997;53.278;9.708;2023-02-02T04:57:25;22.52;;;3.22;;
48207;SDS011;33997;53.278;9.708;2023-02-02T04:59:51;27.52;;;3.33;;
48207;SDS011;33997;53.278;9.708;2023-02-02T05:02:16;21.58;;;2.72;;
48207;SDS011;33997;53.278;9.708;2023-02-02T05:04:42;20.10;;;3.75;;
48207;SDS011;33997;53.278;9.708;2023-02-02T05:07:07;21.92;;;3.45;;
48207;SDS011;33997;53.278;9.708;2023-02-02T05:09:33;18.08;;;3.17;;
48207;SDS011;33997;53.278;9.708;2023-02-02T05:11:58;20.77;;;3.70;;
48207;SDS011;33997;53.278;9.708;2023-02-02T05:14:24;25.30;;;3.45;;
48207;SDS011;33997;53.278;9.708;2023-02-02T05:16:49;23.33;;;3.30;;
48207;SDS011;33997;53.278;9.708;2023-02-02T05:19:15;23.63;;;3.50;;
48207;SDS011;33997;53.278;9.708;2023-02-02T05:21:41;28.67;;;3.35;;
48207;SDS011;33997;53.278;9.708;2023-02-02T05:24:08;26.77;;;3.88;;
48207;SDS011;33997;53.278;9.708;2023-02-02T05:26:34;25.35;;;3.30;;
48207;SDS011;33997;53.278;9.708;2023-02-02T05:29:00;28.13;;;3.80;;
48207;SDS011;33997;53.278;9.708;2023-02-02T05:31:26;17.45;;;3.33;;
48207;SDS011;33997;53.278;9.708;2023-02-02T05:33:52;26.17;;;3.67;;
48207;SDS011;33997;53.278;9.708;2023-02-02T05:36:17;29.02;;;3.40;;
48207;SDS011;33997;53.278;9.708;2023-02-02T05:38:42;30.75;;;4.75;;
48207;SDS011;33997;53.278;9.708;2023-02-02T05:41:08;21.02;;;3.15;;
48207;SDS011;33997;53.278;9.708;2023-02-02T05:43:33;21.95;;;3.78;;
48207;SDS011;33997;53.278;9.708;2023-02-02T05:45:59;26.23;;;3.90;;
48207;SDS011;33997;53.278;9.708;2023-02-02T05:48:25;21.10;;;3.50;;
48207;SDS011;33997;53.278;9.708;2023-02-02T05:50:55;28.52;;;3.72;;
48207;SDS011;33997;53.278;9.708;2023-02-02T05:53:43;28.88;;;3.72;;
48207;SDS011;33997;53.278;9.708;2023-02-02T05:56:09;24.73;;;2.97;;
48207;SDS011;33997;53.278;9.708;2023-02-02T05:58:36;24.52;;;4.20;;
48207;SDS011;33997;53.278;9.708;2023-02-02T06:01:01;27.70;;;4.20;;
48207;SDS011;33997;53.278;9.708;2023-02-02T06:03:27;25.00;;;3.30;;
48207;SDS011;33997;53.278;9.708;2023-02-02T06:05:52;21.58;;;3.28;;
48207;SDS011;33997;53.278;9.708;2023-02-02T06:08:18;25.10;;;3.58;;
48207;SDS011;33997;53.278;9.708;2023-02-02T06:10:43;21.17;;;3.67;;
48207;SDS011;33997;53.278;9.708;2023-02-02T06:13:09;29.50;;;3.40;;
48207;SDS011;33997;53.278;9.708;2023-02-02T06:15:35;28.75;;;3.83;;
48207;SDS011;33997;53.278;9.708;2023-02-02T06:18:01;31.40;;;4.00;;
48207;SDS011;33997;53.278;9.708;2023-02-02T06:20:27;20.83;;;3.33;;
48207;SDS011;33997;53.278;9.708;2023-02-02T06:22:52;27.30;;;3.55;;
48207;SDS011;33997;53.278;9.708;2023-02-02T06:25:18;27.77;;;3.67;;
48207;SDS011;33997;53.278;9.708;2023-02-02T06:27:43;28.42;;;3.35;;
48207;SDS011;33997;53.278;9.708;2023-02-02T06:30:10;28.20;;;3.75;;
48207;SDS011;33997;53.278;9.708;2023-02-02T06:32:36;29.05;;;4.63;;
48207;SDS011;33997;53.278;9.708;2023-02-02T06:35:02;24.17;;;3.67;;
48207;SDS011;33997;53.278;9.708;2023-02-02T06:37:28;30.50;;;3.88;;
48207;SDS011;33997;53.278;9.708;2023-02-02T06:39:54;23.95;;;3.40;;
48207;SDS011;33997;53.278;9.708;2023-02-02T06:42:19;29.33;;;3.75;;
48207;SDS011;33997;53.278;9.708;2023-02-02T06:44:45;23.83;;;3.78;;
48207;SDS011;33997;53.278;9.708;2023-02-02T06:47:10;28.70;;;3.72;;
48207;SDS011;33997;53.278;9.708;2023-02-02T06:49:36;24.00;;;3.30;;
48207;SDS011;33997;53.278;9.708;2023-02-02T06:52:01;25.33;;;3.38;;
48207;SDS011;33997;53.278;9.708;2023-02-02T06:54:27;34.08;;;4.47;;
48207;SDS011;33997;53.278;9.708;2023-02-02T06:56:52;31.10;;;3.95;;
48207;SDS011;33997;53.278;9.708;2023-02-02T06:59:19;25.65;;;3.88;;
48207;SDS011;33997;53.278;9.708;2023-02-02T07:01:44;24.00;;;3.47;;
48207;SDS011;33997;53.278;9.708;2023-02-02T07:04:12;31.42;;;4.00;;
48207;SDS011;33997;53.278;9.708;2023-02-02T07:06:38;27.10;;;3.70;;
48207;SDS011;33997;53.278;9.708;2023-02-02T07:09:03;25.08;;;3.20;;
48207;SDS011;33997;53.278;9.708;2023-02-02T07:11:32;32.40;;;4.80;;
48207;SDS011;33997;53.278;9.708;2023-02-02T07:13:59;30.45;;;4.78;;
48207;SDS011;33997;53.278;9.708;2023-02-02T07:16:25;31.00;;;4.03;;
48207;SDS011;33997;53.278;9.708;2023-02-02T07:18:50;22.13;;;3.53;;
48207;SDS011;33997;53.278;9.708;2023-02-02T07:21:17;25.10;;;3.53;;
48207;SDS011;33997;53.278;9.708;2023-02-02T07:23:44;21.98;;;3.45;;
48207;SDS011;33997;53.278;9.708;2023-02-02T07:26:10;28.48;;;4.60;;
48207;SDS011;33997;53.278;9.708;2023-02-02T07:28:38;28.27;;;4.30;;
48207;SDS011;33997;53.278;9.708;2023-02-02T07:31:13;26.23;;;5.00;;
48207;SDS011;33997;53.278;9.708;2023-02-02T07:33:43;27.80;;;4.80;;
48207;SDS011;33997;53.278;9.708;2023-02-02T07:36:11;24.88;;;4.57;;
48207;SDS011;33997;53.278;9.708;2023-02-02T07:38:38;23.27;;;3.97;;
48207;SDS011;33997;53.278;9.708;2023-02-02T07:41:03;40.72;;;5.10;;
48207;SDS011;33997;53.278;9.708;2023-02-02T07:43:29;35.88;;;5.57;;
48207;SDS011;33997;53.278;9.708;2023-02-02T07:45:58;33.83;;;5.57;;
48207;SDS011;33997;53.278;9.708;2023-02-02T07:48:27;26.60;;;5.97;;
48207;SDS011;33997;53.278;9.708;2023-02-02T07:50:56;27.38;;;4.35;;
48207;SDS011;33997;53.278;9.708;2023-02-02T07:53:23;22.45;;;3.85;;
48207;SDS011;33997;53.278;9.708;2023-02-02T07:55:48;32.50;;;4.93;;
48207;SDS011;33997;53.278;9.708;2023-02-02T07:58:14;33.25;;;5.50;;
48207;SDS011;33997;53.278;9.708;2023-02-02T08:00:39;35.50;;;6.43;;
48207;SDS011;33997;53.278;9.708;2023-02-02T08:03:05;23.58;;;5.57;;
48207;SDS011;33997;53.278;9.708;2023-02-02T08:05:30;30.02;;;3.95;;
48207;SDS011;33997;53.278;9.708;2023-02-02T08:07:58;34.33;;;4.18;;
48207;SDS011;33997;53.278;9.708;2023-02-02T08:10:24;16.75;;;2.88;;
48207;SDS011;33997;53.278;9.708;2023-02-02T08:12:49;26.10;;;3.40;;
48207;SDS011;33997;53.278;9.708;2023-02-02T08:15:14;28.98;;;4.63;;
48207;SDS011;33997;53.278;9.708;2023-02-02T08:17:43;30.42;;;4.45;;
48207;SDS011;33997;53.278;9.708;2023-02-02T08:20:10;28.13;;;3.43;;
48207;SDS011;33997;53.278;9.708;2023-02-02T08:22:37;28.88;;;3.65;;
48207;SDS011;33997;53.278;9.708;2023-02-02T08:25:03;27.35;;;4.75;;
48207;SDS011;33997;53.278;9.708;2023-02-02T08:27:29;31.42;;;4.55;;
48207;SDS011;33997;53.278;9.708;2023-02-02T08:29:55;24.63;;;4.03;;
48207;SDS011;33997;53.278;9.708;2023-02-02T08:32:20;29.52;;;3.88;;
48207;SDS011;33997;53.278;9.708;2023-02-02T08:34:47;23.77;;;4.55;;
48207;SDS011;33997;53.278;9.708;2023-02-02T08:37:13;23.42;;;3.65;;
48207;SDS011;33997;53.278;9.708;2023-02-02T08:39:38;25.88;;;3.20;;
48207;SDS011;33997;53.278;9.708;2023-02-02T08:42:03;28.15;;;3.72;;
48207;SDS011;33997;53.278;9.708;2023-02-02T08:44:29;30.73;;;3.70;;
48207;SDS011;33997;53.278;9.708;2023-02-02T08:46:54;29.17;;;3.88;;
48207;SDS011;33997;53.278;9.708;2023-02-02T08:49:20;26.83;;;4.45;;
48207;SDS011;33997;53.278;9.708;2023-02-02T08:51:45;23.02;;;3.35;;
48207;SDS011;33997;53.278;9.708;2023-02-02T08:54:11;18.30;;;4.13;;
48207;SDS011;33997;53.278;9.708;2023-02-02T08:56:36;28.92;;;3.60;;
48207;SDS011;33997;53.278;9.708;2023-02-02T08:59:02;22.08;;;3.33;;
48207;SDS011;33997;53.278;9.708;2023-02-02T09:01:30;29.58;;;4.05;;
48207;SDS011;33997;53.278;9.708;2023-02-02T09:03:57;24.48;;;3.65;;
48207;SDS011;33997;53.278;9.708;2023-02-02T09:06:38;23.23;;;3.42;;
48207;SDS011;33997;53.278;9.708;2023-02-02T09:09:06;28.48;;;4.43;;
48207;SDS011;33997;53.278;9.708;2023-02-02T09:11:33;26.02;;;3.95;;
48207;SDS011;33997;53.278;9.708;2023-02-02T09:13:59;24.70;;;3.47;;
48207;SDS011;33997;53.278;9.708;2023-02-02T09:16:27;22.30;;;3.50;;
48207;SDS011;33997;53.278;9.708;2023-02-02T09:18:53;29.67;;;3.55;;
48207;SDS011;33997;53.278;9.708;2023-02-02T09:21:19;27.95;;;3.95;;
48207;SDS011;33997;53.278;9.708;2023-02-02T09:23:46;27.65;;;4.35;;
48207;SDS011;33997;53.278;9.708;2023-02-02T09:26:26;28.52;;;4.07;;
48207;SDS011;33997;53.278;9.708;2023-02-02T09:28:53;18.27;;;3.97;;
48207;SDS011;33997;53.278;9.708;2023-02-02T09:31:21;19.52;;;3.58;;
48207;SDS011;33997;53.278;9.708;2023-02-02T09:33:47;29.38;;;4.70;;
48207;SDS011;33997;53.278;9.708;2023-02-02T09:36:14;21.50;;;3.97;;
48207;SDS011;33997;53.278;9.708;2023-02-02T09:38:41;26.38;;;3.83;;
48207;SDS011;33997;53.278;9.708;2023-02-02T09:43:55;19.20;;;3.38;;
48207;SDS011;33997;53.278;9.708;2023-02-02T09:55:25;31.38;;;4.22;;
48207;SDS011;33997;53.278;9.708;2023-02-02T09:58:09;32.00;;;4.00;;
48207;SDS011;33997;53.278;9.708;2023-02-02T10:00:37;27.10;;;3.38;;
48207;SDS011;33997;53.278;9.708;2023-02-02T10:03:12;21.13;;;3.58;;
48207;SDS011;33997;53.278;9.708;2023-02-02T10:06:01;23.38;;;4.07;;
48207;SDS011;33997;53.278;9.708;2023-02-02T10:08:37;24.25;;;5.40;;
48207;SDS011;33997;53.278;9.708;2023-02-02T10:11:24;26.83;;;4.60;;
48207;SDS011;33997;53.278;9.708;2023-02-02T10:14:10;34.38;;;4.88;;
48207;SDS011;33997;53.278;9.708;2023-02-02T10:16:50;32.03;;;4.32;;
48207;SDS011;33997;53.278;9.708;2023-02-02T10:19:18;24.30;;;3.50;;
48207;SDS011;33997;53.278;9.708;2023-02-02T10:24:16;27.98;;;4.18;;
48207;SDS011;33997;53.278;9.708;2023-02-02T10:26:45;22.02;;;3.70;;
48207;SDS011;33997;53.278;9.708;2023-02-02T10:32:05;19.55;;;2.90;;
48207;SDS011;33997;53.278;9.708;2023-02-02T10:49:08;17.77;;;3.25;;
48207;SDS011;33997;53.278;9.708;2023-02-02T10:51:39;21.77;;;3.47;;
48207;SDS011;33997;53.278;9.708;2023-02-02T10:54:14;13.75;;;2.75;;
48207;SDS011;33997;53.278;9.708;2023-02-02T10:57:02;17.25;;;2.65;;
48207;SDS011;33997;53.278;9.708;2023-02-02T10:59:32;18.92;;;2.85;;
48207;SDS011;33997;53.278;9.708;2023-02-02T11:04:33;16.95;;;2.63;;
48207;SDS011;33997;53.278;9.708;2023-02-02T11:07:18;11.70;;;2.45;;
48207;SDS011;33997;53.278;9.708;2023-02-02T11:09:44;10.07;;;2.40;;
48207;SDS011;33997;53.278;9.708;2023-02-02T11:12:24;15.60;;;2.65;;
48207;SDS011;33997;53.278;9.708;2023-02-02T11:15:07;12.55;;;1.92;;
48207;SDS011;33997;53.278;9.708;2023-02-02T11:17:49;16.92;;;2.58;;
48207;SDS011;33997;53.278;9.708;2023-02-02T11:20:30;7.05;;;1.55;;
48207;SDS011;33997;53.278;9.708;2023-02-02T11:22:58;13.45;;;2.30;;
48207;SDS011;33997;53.278;9.708;2023-02-02T11:25:32;10.90;;;1.52;;
48207;SDS011;33997;53.278;9.708;2023-02-02T11:28:00;7.85;;;1.42;;
48207;SDS011;33997;53.278;9.708;2023-02-02T11:30:37;11.25;;;1.73;;
48207;SDS011;33997;53.278;9.708;2023-02-02T11:36:19;9.57;;;1.63;;
48207;SDS011;33997;53.278;9.708;2023-02-02T11:38:45;13.38;;;1.50;;
48207;SDS011;33997;53.278;9.708;2023-02-02T11:41:11;7.70;;;1.65;;
48207;SDS011;33997;53.278;9.708;2023-02-02T11:43:39;12.35;;;1.75;;
48207;SDS011;33997;53.278;9.708;2023-02-02T11:46:16;9.40;;;1.73;;
48207;SDS011;33997;53.278;9.708;2023-02-02T11:48:57;9.70;;;1.77;;
48207;SDS011;33997;53.278;9.708;2023-02-02T11:51:28;7.33;;;1.00;;
48207;SDS011;33997;53.278;9.708;2023-02-02T11:54:14;5.68;;;0.95;;
48207;SDS011;33997;53.278;9.708;2023-02-02T11:56:48;6.43;;;1.23;;
48207;SDS011;33997;53.278;9.708;2023-02-02T12:00:04;7.18;;;1.38;;
48207;SDS011;33997;53.278;9.708;2023-02-02T12:02:27;6.60;;;1.45;;
48207;SDS011;33997;53.278;9.708;2023-02-02T12:05:12;12.57;;;1.60;;
48207;SDS011;33997;53.278;9.708;2023-02-02T12:07:38;7.63;;;1.05;;
48207;SDS011;33997;53.278;9.708;2023-02-02T12:10:12;6.65;;;1.35;;
48207;SDS011;33997;53.278;9.708;2023-02-02T12:12:48;7.70;;;1.55;;
48207;SDS011;33997;53.278;9.708;2023-02-02T12:18:06;8.95;;;1.23;;
48207;SDS011;33997;53.278;9.708;2023-02-02T12:26:37;7.93;;;1.52;;
48207;SDS011;33997;53.278;9.708;2023-02-02T12:35:17;9.45;;;1.25;;
48207;SDS011;33997;53.278;9.708;2023-02-02T12:41:04;9.73;;;1.08;;
48207;SDS011;33997;53.278;9.708;2023-02-02T12:43:41;3.50;;;0.95;;
48207;SDS011;33997;53.278;9.708;2023-02-02T12:48:49;6.78;;;1.30;;
48207;SDS011;33997;53.278;9.708;2023-02-02T12:57:17;5.85;;;1.02;;
48207;SDS011;33997;53.278;9.708;2023-02-02T12:59:59;8.50;;;1.35;;
48207;SDS011;33997;53.278;9.708;2023-02-02T13:02:37;4.93;;;0.98;;
48207;SDS011;33997;53.278;9.708;2023-02-02T13:08:43;8.60;;;1.58;;
48207;SDS011;33997;53.278;9.708;2023-02-02T13:11:15;6.82;;;1.33;;
48207;SDS011;33997;53.278;9.708;2023-02-02T13:13:59;5.97;;;1.33;;
48207;SDS011;33997;53.278;9.708;2023-02-02T13:16:33;6.18;;;1.20;;
48207;SDS011;33997;53.278;9.708;2023-02-02T13:19:04;4.82;;;1.20;;
48207;SDS011;33997;53.278;9.708;2023-02-02T13:21:37;6.10;;;1.23;;
48207;SDS011;33997;53.278;9.708;2023-02-02T13:24:04;10.43;;;1.27;;
48207;SDS011;33997;53.278;9.708;2023-02-02T13:26:35;5.75;;;1.27;;
48207;SDS011;33997;53.278;9.708;2023-02-02T13:29:10;5.93;;;0.93;;
48207;SDS011;33997;53.278;9.708;2023-02-02T13:32:05;5.47;;;1.20;;
48207;SDS011;33997;53.278;9.708;2023-02-02T13:34:40;8.52;;;1.55;;
48207;SDS011;33997;53.278;9.708;2023-02-02T13:37:14;8.70;;;1.52;;
48207;SDS011;33997;53.278;9.708;2023-02-02T13:42:48;11.52;;;1.88;;
48207;SDS011;33997;53.278;9.708;2023-02-02T13:45:51;8.50;;;1.23;;
48207;SDS011;33997;53.278;9.708;2023-02-02T13:48:33;10.38;;;1.98;;
48207;SDS011;33997;53.278;9.708;2023-02-02T13:56:42;9.52;;;1.20;;
48207;SDS011;33997;53.278;9.708;2023-02-02T13:59:46;10.05;;;1.30;;
48207;SDS011;33997;53.278;9.708;2023-02-02T14:05:07;9.32;;;1.70;;
48207;SDS011;33997;53.278;9.708;2023-02-02T14:07:53;7.75;;;1.58;;
48207;SDS011;33997;53.278;9.708;2023-02-02T14:10:58;7.28;;;2.05;;
48207;SDS011;33997;53.278;9.708;2023-02-02T14:13:45;7.78;;;1.50;;
48207;SDS011;33997;53.278;9.708;2023-02-02T14:19:01;9.30;;;1.88;;
48207;SDS011;33997;53.278;9.708;2023-02-02T14:24:00;8.48;;;1.30;;
48207;SDS011;33997;53.278;9.708;2023-02-02T14:31:59;6.55;;;1.30;;
48207;SDS011;33997;53.278;9.708;2023-02-02T14:34:44;7.07;;;2.08;;
48207;SDS011;33997;53.278;9.708;2023-02-02T14:45:22;8.25;;;1.15;;
48207;SDS011;33997;53.278;9.708;2023-02-02T14:48:16;5.65;;;0.90;;
48207;SDS011;33997;53.278;9.708;2023-02-02T14:50:46;5.22;;;1.30;;
48207;SDS011;33997;53.278;9.708;2023-02-02T14:53:20;4.18;;;1.40;;
48207;SDS011;33997;53.278;9.708;2023-02-02T14:58:25;4.22;;;1.27;;
48207;SDS011;33997;53.278;9.708;2023-02-02T15:01:06;5.70;;;1.20;;
48207;SDS011;33997;53.278;9.708;2023-02-02T15:06:35;5.53;;;1.38;;
48207;SDS011;33997;53.278;9.708;2023-02-02T15:14:26;6.93;;;1.00;;
48207;SDS011;33997;53.278;9.708;2023-02-02T15:17:05;8.20;;;1.40;;
48207;SDS011;33997;53.278;9.708;2023-02-02T15:19:39;3.80;;;1.00;;
48207;SDS011;33997;53.278;9.708;2023-02-02T15:25:17;7.63;;;1.20;;
48207;SDS011;33997;53.278;9.708;2023-02-02T15:27:49;11.30;;;2.30;;
48207;SDS011;33997;53.278;9.708;2023-02-02T15:30:21;7.43;;;1.55;;
48207;SDS011;33997;53.278;9.708;2023-02-02T15:32:50;9.52;;;1.60;;
48207;SDS011;33997;53.278;9.708;2023-02-02T15:35:18;8.02;;;1.80;;
48207;SDS011;33997;53.278;9.708;2023-02-02T15:37:49;10.63;;;2.00;;
48207;SDS011;33997;53.278;9.708;2023-02-02T15:40:20;7.53;;;1.30;;
48207;SDS011;33997;53.278;9.708;2023-02-02T15:42:57;8.25;;;2.00;;
48207;SDS011;33997;53.278;9.708;2023-02-02T15:48:21;9.95;;;1.90;;
48207;SDS011;33997;53.278;9.708;2023-02-02T15:50:53;12.80;;;2.35;;
48207;SDS011;33997;53.278;9.708;2023-02-02T15:53:22;10.13;;;2.40;;
48207;SDS011;33997;53.278;9.708;2023-02-02T15:55:52;10.30;;;2.72;;
48207;SDS011;33997;53.278;9.708;2023-02-02T15:58:26;12.27;;;2.95;;
48207;SDS011;33997;53.278;9.708;2023-02-02T16:00:58;10.10;;;1.98;;
48207;SDS011;33997;53.278;9.708;2023-02-02T16:03:29;13.48;;;2.50;;
48207;SDS011;33997;53.278;9.708;2023-02-02T16:06:00;8.52;;;2.00;;
48207;SDS011;33997;53.278;9.708;2023-02-02T16:08:30;7.00;;;1.58;;
48207;SDS011;33997;53.278;9.708;2023-02-02T16:13:32;8.73;;;1.83;;
48207;SDS011;33997;53.278;9.708;2023-02-02T16:15:59;7.00;;;1.52;;
48207;SDS011;33997;53.278;9.708;2023-02-02T16:18:26;12.02;;;1.50;;
48207;SDS011;33997;53.278;9.708;2023-02-02T16:20:53;7.38;;;1.42;;
48207;SDS011;33997;53.278;9.708;2023-02-02T16:23:21;11.15;;;1.80;;
48207;SDS011;33997;53.278;9.708;2023-02-02T16:26:01;10.45;;;2.17;;
48207;SDS011;33997;53.278;9.708;2023-02-02T16:28:28;9.93;;;2.13;;
48207;SDS011;33997;53.278;9.708;2023-02-02T16:30:54;8.35;;;2.20;;
48207;SDS011;33997;53.278;9.708;2023-02-02T16:36:00;8.98;;;2.45;;
48207;SDS011;33997;53.278;9.708;2023-02-02T16:38:33;8.30;;;1.83;;
48207;SDS011;33997;53.278;9.708;2023-02-02T16:41:07;6.57;;;2.03;;
48207;SDS011;33997;53.278;9.708;2023-02-02T16:43:35;12.13;;;2.67;;
48207;SDS011;33997;53.278;9.708;2023-02-02T16:46:03;11.45;;;2.20;;
48207;SDS011;33997;53.278;9.708;2023-02-02T16:53:42;11.98;;;2.10;;
48207;SDS011;33997;53.278;9.708;2023-02-02T16:56:18;7.28;;;1.70;;
48207;SDS011;33997;53.278;9.708;2023-02-02T16:59:04;11.43;;;1.58;;
48207;SDS011;33997;53.278;9.708;2023-02-02T17:01:42;11.23;;;2.05;;
48207;SDS011;33997;53.278;9.708;2023-02-02T17:04:16;8.88;;;1.52;;
48207;SDS011;33997;53.278;9.708;2023-02-02T17:06:42;6.28;;;1.90;;
48207;SDS011;33997;53.278;9.708;2023-02-02T17:09:41;6.43;;;1.60;;
48207;SDS011;33997;53.278;9.708;2023-02-02T17:17:21;14.05;;;2.30;;
48207;SDS011;33997;53.278;9.708;2023-02-02T17:19:47;10.40;;;1.85;;
48207;SDS011;33997;53.278;9.708;2023-02-02T17:22:13;13.02;;;1.98;;
48207;SDS011;33997;53.278;9.708;2023-02-02T17:24:40;8.45;;;1.83;;
48207;SDS011;33997;53.278;9.708;2023-02-02T17:27:10;14.15;;;2.25;;